Pagrindinis puslapis
METAR-TAF:

METAR-TAF

Oro uostai :

Uagadugu oro uostas

Uagadugu, Burkina Fasas

platuma: 12-21N, ilguma: 001-31W, Aukštis: 316 m

Dabartinis oras

Ataskaita buvo paskelbta 1 valandą ir 2 minutes, ne 21:00 UTC
Vėjas 4 kt iš Šiaurės Rytų
Temperatūra 24°C
Drėgmė 19%
Slėgis 1013 hPa
Matomumas: 8000 m

METAR: DFFD 152100Z 04004KT 8000 NSC 24/M01 Q1013 NOSIG

Laikas: 22:02 (22:02 UTC)

Prognozė

Ataskaita buvo paskelbta 5 valandos ir 2 minutes, ne 17:00 UTC
Prognozė galioja nuo 15 metu 18 UTC su 16 metu 24 UTC
Vėjas 8 kt iš Rytų/Šiaurės Rytų
Matomumas 10 km arba daugiau
nėra debesų žemiau 1500 m ir nėra kamuolinių lietaus debesų
Laikinai
nuo 16 metu 06 UTC su 16 metu 10 UTC
Matomumas: 2500 m
migla
Laikinai
nuo 16 metu 17 UTC su 16 metu 20 UTC
Matomumas: 4000 m
migla

TAF: DFFD 151700Z 1518/1624 06008KT CAVOK TEMPO 1606/1610 2500 HZ TEMPO 1617/1620 4000 HZ

Orai ataskaitas ir orų prognozės (METAR, TAF).

turimą stotys yra geltonos ir raudonos taškus žemėlapyje.

Perkelti pele per norėdami pamatyti stoties vardą.

Tada spustelėkite, norėdami matyti oro stebėjimo ir prognozės.

Norėdami pakeisti žemėlapį: spustelėkite ant žalios mygtukų su juodo kryžiaus žemyn,; žalią mygtuką su brūkšneliu, jei norite nutolinti; arba žalių rodyklių gretimoms žemėlapius.


METAR-TAF: